sensor_id;sensor_type;location;lat;lon;timestamp;P1;durP1;ratioP1;P2;durP2;ratioP2
52368;SDS011;38298;50.346;3.526;2023-12-20T00:00:07;7.80;;;1.77;;
52368;SDS011;38298;50.346;3.526;2023-12-20T00:02:33;13.18;;;2.00;;
52368;SDS011;38298;50.346;3.526;2023-12-20T00:05:00;7.75;;;1.90;;
52368;SDS011;38298;50.346;3.526;2023-12-20T00:07:26;11.68;;;1.70;;
52368;SDS011;38298;50.346;3.526;2023-12-20T00:09:52;11.30;;;1.80;;
52368;SDS011;38298;50.346;3.526;2023-12-20T00:12:18;12.48;;;2.10;;
52368;SDS011;38298;50.346;3.526;2023-12-20T00:14:44;7.97;;;2.75;;
52368;SDS011;38298;50.346;3.526;2023-12-20T00:17:10;15.48;;;2.10;;
52368;SDS011;38298;50.346;3.526;2023-12-20T00:19:36;7.05;;;1.73;;
52368;SDS011;38298;50.346;3.526;2023-12-20T00:22:02;11.57;;;1.77;;
52368;SDS011;38298;50.346;3.526;2023-12-20T00:24:28;7.35;;;1.90;;
52368;SDS011;38298;50.346;3.526;2023-12-20T00:26:57;9.13;;;1.73;;
52368;SDS011;38298;50.346;3.526;2023-12-20T00:29:23;9.25;;;1.73;;
52368;SDS011;38298;50.346;3.526;2023-12-20T00:31:49;12.80;;;2.22;;
52368;SDS011;38298;50.346;3.526;2023-12-20T00:34:15;6.78;;;2.05;;
52368;SDS011;38298;50.346;3.526;2023-12-20T00:36:41;6.45;;;1.88;;
52368;SDS011;38298;50.346;3.526;2023-12-20T00:39:07;14.57;;;2.67;;
52368;SDS011;38298;50.346;3.526;2023-12-20T00:41:33;15.27;;;2.35;;
52368;SDS011;38298;50.346;3.526;2023-12-20T00:43:59;10.75;;;1.92;;
52368;SDS011;38298;50.346;3.526;2023-12-20T00:46:25;9.27;;;1.98;;
52368;SDS011;38298;50.346;3.526;2023-12-20T00:48:51;13.98;;;2.47;;
52368;SDS011;38298;50.346;3.526;2023-12-20T00:51:16;11.18;;;2.13;;
52368;SDS011;38298;50.346;3.526;2023-12-20T00:53:43;15.57;;;2.22;;
52368;SDS011;38298;50.346;3.526;2023-12-20T00:56:09;7.53;;;1.88;;
52368;SDS011;38298;50.346;3.526;2023-12-20T00:58:35;18.05;;;2.40;;
52368;SDS011;38298;50.346;3.526;2023-12-20T01:01:01;9.32;;;2.13;;
52368;SDS011;38298;50.346;3.526;2023-12-20T01:03:27;17.52;;;2.70;;
52368;SDS011;38298;50.346;3.526;2023-12-20T01:05:53;15.10;;;2.88;;
52368;SDS011;38298;50.346;3.526;2023-12-20T01:08:19;11.75;;;3.58;;
52368;SDS011;38298;50.346;3.526;2023-12-20T01:10:45;9.18;;;2.47;;
52368;SDS011;38298;50.346;3.526;2023-12-20T01:13:11;4.93;;;2.80;;
52368;SDS011;38298;50.346;3.526;2023-12-20T01:15:37;11.98;;;3.30;;
52368;SDS011;38298;50.346;3.526;2023-12-20T01:18:04;9.05;;;2.60;;
52368;SDS011;38298;50.346;3.526;2023-12-20T01:20:30;16.60;;;2.70;;
52368;SDS011;38298;50.346;3.526;2023-12-20T01:22:56;8.48;;;2.42;;
52368;SDS011;38298;50.346;3.526;2023-12-20T01:25:22;8.48;;;2.75;;
52368;SDS011;38298;50.346;3.526;2023-12-20T01:27:48;19.00;;;3.42;;
52368;SDS011;38298;50.346;3.526;2023-12-20T01:30:14;8.95;;;2.63;;
52368;SDS011;38298;50.346;3.526;2023-12-20T01:32:40;12.02;;;3.50;;
52368;SDS011;38298;50.346;3.526;2023-12-20T01:35:06;16.50;;;3.90;;
52368;SDS011;38298;50.346;3.526;2023-12-20T01:37:32;27.20;;;5.63;;
52368;SDS011;38298;50.346;3.526;2023-12-20T01:39:58;20.15;;;5.25;;
52368;SDS011;38298;50.346;3.526;2023-12-20T01:42:24;25.92;;;6.57;;
52368;SDS011;38298;50.346;3.526;2023-12-20T01:44:50;29.98;;;6.65;;
52368;SDS011;38298;50.346;3.526;2023-12-20T01:47:16;25.30;;;6.18;;
52368;SDS011;38298;50.346;3.526;2023-12-20T01:49:47;22.15;;;5.85;;
52368;SDS011;38298;50.346;3.526;2023-12-20T01:52:13;13.95;;;3.65;;
52368;SDS011;38298;50.346;3.526;2023-12-20T01:54:39;11.43;;;3.15;;
52368;SDS011;38298;50.346;3.526;2023-12-20T01:57:06;11.73;;;3.38;;
52368;SDS011;38298;50.346;3.526;2023-12-20T01:59:32;15.18;;;3.22;;
52368;SDS011;38298;50.346;3.526;2023-12-20T02:01:58;9.75;;;2.83;;
52368;SDS011;38298;50.346;3.526;2023-12-20T02:04:24;9.77;;;2.28;;
52368;SDS011;38298;50.346;3.526;2023-12-20T02:06:52;10.63;;;2.20;;
52368;SDS011;38298;50.346;3.526;2023-12-20T02:09:18;10.35;;;2.28;;
52368;SDS011;38298;50.346;3.526;2023-12-20T02:11:44;7.85;;;2.08;;
52368;SDS011;38298;50.346;3.526;2023-12-20T02:14:10;9.05;;;2.42;;
52368;SDS011;38298;50.346;3.526;2023-12-20T02:16:36;9.38;;;2.03;;
52368;SDS011;38298;50.346;3.526;2023-12-20T02:19:03;4.25;;;1.80;;
52368;SDS011;38298;50.346;3.526;2023-12-20T02:21:32;10.38;;;2.45;;
52368;SDS011;38298;50.346;3.526;2023-12-20T02:24:00;8.02;;;2.40;;
52368;SDS011;38298;50.346;3.526;2023-12-20T02:26:26;7.88;;;2.30;;
52368;SDS011;38298;50.346;3.526;2023-12-20T02:28:52;12.07;;;2.40;;
52368;SDS011;38298;50.346;3.526;2023-12-20T02:31:20;7.90;;;1.95;;
52368;SDS011;38298;50.346;3.526;2023-12-20T02:33:47;11.77;;;2.33;;
52368;SDS011;38298;50.346;3.526;2023-12-20T02:36:13;9.57;;;1.88;;
52368;SDS011;38298;50.346;3.526;2023-12-20T02:38:39;11.02;;;2.53;;
52368;SDS011;38298;50.346;3.526;2023-12-20T02:41:05;9.40;;;2.30;;
52368;SDS011;38298;50.346;3.526;2023-12-20T02:43:31;7.55;;;1.80;;
52368;SDS011;38298;50.346;3.526;2023-12-20T02:45:57;9.82;;;2.10;;
52368;SDS011;38298;50.346;3.526;2023-12-20T02:48:23;5.32;;;1.88;;
52368;SDS011;38298;50.346;3.526;2023-12-20T02:50:49;7.65;;;2.85;;
52368;SDS011;38298;50.346;3.526;2023-12-20T02:53:18;10.18;;;1.60;;
52368;SDS011;38298;50.346;3.526;2023-12-20T02:55:44;4.32;;;1.77;;
52368;SDS011;38298;50.346;3.526;2023-12-20T02:58:10;5.53;;;1.88;;
52368;SDS011;38298;50.346;3.526;2023-12-20T03:00:36;7.32;;;1.85;;
52368;SDS011;38298;50.346;3.526;2023-12-20T03:03:02;9.75;;;2.72;;
52368;SDS011;38298;50.346;3.526;2023-12-20T03:05:28;7.78;;;2.15;;
52368;SDS011;38298;50.346;3.526;2023-12-20T03:07:54;8.95;;;2.53;;
52368;SDS011;38298;50.346;3.526;2023-12-20T03:10:20;10.45;;;2.03;;
52368;SDS011;38298;50.346;3.526;2023-12-20T03:12:46;19.55;;;2.97;;
52368;SDS011;38298;50.346;3.526;2023-12-20T03:15:12;7.93;;;1.75;;
52368;SDS011;38298;50.346;3.526;2023-12-20T03:17:38;8.45;;;2.13;;
52368;SDS011;38298;50.346;3.526;2023-12-20T03:20:04;10.23;;;1.83;;
52368;SDS011;38298;50.346;3.526;2023-12-20T03:22:30;10.10;;;1.70;;
52368;SDS011;38298;50.346;3.526;2023-12-20T03:25:00;11.32;;;2.20;;
52368;SDS011;38298;50.346;3.526;2023-12-20T03:27:26;10.95;;;2.72;;
52368;SDS011;38298;50.346;3.526;2023-12-20T03:29:52;11.23;;;2.13;;
52368;SDS011;38298;50.346;3.526;2023-12-20T03:32:18;3.63;;;1.65;;
52368;SDS011;38298;50.346;3.526;2023-12-20T03:34:44;9.02;;;1.67;;
52368;SDS011;38298;50.346;3.526;2023-12-20T03:37:10;9.82;;;1.70;;
52368;SDS011;38298;50.346;3.526;2023-12-20T03:39:36;13.82;;;2.17;;
52368;SDS011;38298;50.346;3.526;2023-12-20T03:42:02;10.45;;;2.00;;
52368;SDS011;38298;50.346;3.526;2023-12-20T03:44:28;9.98;;;2.15;;
52368;SDS011;38298;50.346;3.526;2023-12-20T03:46:54;6.18;;;1.90;;
52368;SDS011;38298;50.346;3.526;2023-12-20T03:49:20;6.53;;;2.08;;
52368;SDS011;38298;50.346;3.526;2023-12-20T03:51:46;11.40;;;1.70;;
52368;SDS011;38298;50.346;3.526;2023-12-20T03:54:12;9.05;;;1.65;;
52368;SDS011;38298;50.346;3.526;2023-12-20T03:56:38;9.70;;;1.90;;
52368;SDS011;38298;50.346;3.526;2023-12-20T03:59:04;5.38;;;1.70;;
52368;SDS011;38298;50.346;3.526;2023-12-20T04:01:30;10.00;;;1.75;;
52368;SDS011;38298;50.346;3.526;2023-12-20T04:03:56;7.68;;;1.58;;
52368;SDS011;38298;50.346;3.526;2023-12-20T04:06:22;14.40;;;2.05;;
52368;SDS011;38298;50.346;3.526;2023-12-20T04:08:48;7.90;;;1.48;;
52368;SDS011;38298;50.346;3.526;2023-12-20T04:11:14;6.65;;;1.98;;
52368;SDS011;38298;50.346;3.526;2023-12-20T04:13:40;6.53;;;1.88;;
52368;SDS011;38298;50.346;3.526;2023-12-20T04:16:06;10.18;;;1.52;;
52368;SDS011;38298;50.346;3.526;2023-12-20T04:18:32;12.48;;;2.13;;
52368;SDS011;38298;50.346;3.526;2023-12-20T04:20:58;8.50;;;1.63;;
52368;SDS011;38298;50.346;3.526;2023-12-20T04:23:24;9.30;;;1.70;;
52368;SDS011;38298;50.346;3.526;2023-12-20T04:25:50;6.85;;;1.80;;
52368;SDS011;38298;50.346;3.526;2023-12-20T04:28:16;12.20;;;2.10;;
52368;SDS011;38298;50.346;3.526;2023-12-20T04:30:42;8.55;;;2.00;;
52368;SDS011;38298;50.346;3.526;2023-12-20T04:33:08;6.95;;;1.88;;
52368;SDS011;38298;50.346;3.526;2023-12-20T04:35:34;10.20;;;1.60;;
52368;SDS011;38298;50.346;3.526;2023-12-20T04:38:00;9.68;;;2.00;;
52368;SDS011;38298;50.346;3.526;2023-12-20T04:40:26;8.15;;;2.25;;
52368;SDS011;38298;50.346;3.526;2023-12-20T04:42:52;9.18;;;1.73;;
52368;SDS011;38298;50.346;3.526;2023-12-20T04:45:18;18.15;;;1.58;;
52368;SDS011;38298;50.346;3.526;2023-12-20T04:47:44;14.05;;;2.28;;
52368;SDS011;38298;50.346;3.526;2023-12-20T04:50:12;14.88;;;2.53;;
52368;SDS011;38298;50.346;3.526;2023-12-20T04:52:38;9.23;;;2.13;;
52368;SDS011;38298;50.346;3.526;2023-12-20T04:55:04;4.55;;;1.38;;
52368;SDS011;38298;50.346;3.526;2023-12-20T04:57:30;8.30;;;1.70;;
52368;SDS011;38298;50.346;3.526;2023-12-20T04:59:56;8.73;;;1.98;;
52368;SDS011;38298;50.346;3.526;2023-12-20T05:02:22;8.50;;;1.60;;
52368;SDS011;38298;50.346;3.526;2023-12-20T05:04:48;10.32;;;1.42;;
52368;SDS011;38298;50.346;3.526;2023-12-20T05:07:14;12.27;;;1.60;;
52368;SDS011;38298;50.346;3.526;2023-12-20T05:09:40;15.30;;;1.98;;
52368;SDS011;38298;50.346;3.526;2023-12-20T05:12:06;6.40;;;1.52;;
52368;SDS011;38298;50.346;3.526;2023-12-20T05:14:32;13.85;;;2.03;;
52368;SDS011;38298;50.346;3.526;2023-12-20T05:16:59;12.40;;;1.75;;
52368;SDS011;38298;50.346;3.526;2023-12-20T05:19:24;13.65;;;1.60;;
52368;SDS011;38298;50.346;3.526;2023-12-20T05:21:51;9.07;;;1.67;;
52368;SDS011;38298;50.346;3.526;2023-12-20T05:24:17;13.48;;;1.70;;
52368;SDS011;38298;50.346;3.526;2023-12-20T05:26:43;16.92;;;2.08;;
52368;SDS011;38298;50.346;3.526;2023-12-20T05:29:09;9.93;;;1.40;;
52368;SDS011;38298;50.346;3.526;2023-12-20T05:31:35;12.48;;;1.52;;
52368;SDS011;38298;50.346;3.526;2023-12-20T05:34:01;5.88;;;1.35;;
52368;SDS011;38298;50.346;3.526;2023-12-20T05:36:27;6.28;;;1.08;;
52368;SDS011;38298;50.346;3.526;2023-12-20T05:38:53;10.70;;;2.00;;
52368;SDS011;38298;50.346;3.526;2023-12-20T05:41:19;5.65;;;1.42;;
52368;SDS011;38298;50.346;3.526;2023-12-20T05:43:46;11.48;;;2.22;;
52368;SDS011;38298;50.346;3.526;2023-12-20T05:46:12;11.98;;;1.40;;
52368;SDS011;38298;50.346;3.526;2023-12-20T05:48:38;12.73;;;1.30;;
52368;SDS011;38298;50.346;3.526;2023-12-20T05:51:04;9.13;;;1.67;;
52368;SDS011;38298;50.346;3.526;2023-12-20T05:53:30;9.50;;;1.80;;
52368;SDS011;38298;50.346;3.526;2023-12-20T05:55:56;15.02;;;2.35;;
52368;SDS011;38298;50.346;3.526;2023-12-20T05:58:22;10.68;;;1.63;;
52368;SDS011;38298;50.346;3.526;2023-12-20T06:00:48;9.18;;;1.90;;
52368;SDS011;38298;50.346;3.526;2023-12-20T06:03:14;11.10;;;1.60;;
52368;SDS011;38298;50.346;3.526;2023-12-20T06:05:40;18.77;;;1.83;;
52368;SDS011;38298;50.346;3.526;2023-12-20T06:08:06;11.98;;;2.20;;
52368;SDS011;38298;50.346;3.526;2023-12-20T06:10:32;8.35;;;2.08;;
52368;SDS011;38298;50.346;3.526;2023-12-20T06:12:58;8.40;;;1.55;;
52368;SDS011;38298;50.346;3.526;2023-12-20T06:15:25;11.38;;;1.85;;
52368;SDS011;38298;50.346;3.526;2023-12-20T06:17:51;16.42;;;2.47;;
52368;SDS011;38298;50.346;3.526;2023-12-20T06:20:17;18.73;;;2.05;;
52368;SDS011;38298;50.346;3.526;2023-12-20T06:22:43;19.58;;;2.25;;
52368;SDS011;38298;50.346;3.526;2023-12-20T06:25:09;16.17;;;2.30;;
52368;SDS011;38298;50.346;3.526;2023-12-20T06:27:35;12.95;;;2.28;;
52368;SDS011;38298;50.346;3.526;2023-12-20T06:30:02;9.43;;;1.60;;
52368;SDS011;38298;50.346;3.526;2023-12-20T06:32:28;10.05;;;2.22;;
52368;SDS011;38298;50.346;3.526;2023-12-20T06:34:54;10.75;;;1.48;;
52368;SDS011;38298;50.346;3.526;2023-12-20T06:37:20;14.00;;;2.25;;
52368;SDS011;38298;50.346;3.526;2023-12-20T06:39:46;15.02;;;2.60;;
52368;SDS011;38298;50.346;3.526;2023-12-20T06:42:14;8.02;;;2.22;;
52368;SDS011;38298;50.346;3.526;2023-12-20T06:44:40;14.00;;;2.53;;
52368;SDS011;38298;50.346;3.526;2023-12-20T06:47:06;26.42;;;2.65;;
52368;SDS011;38298;50.346;3.526;2023-12-20T06:49:32;11.13;;;2.28;;
52368;SDS011;38298;50.346;3.526;2023-12-20T06:51:58;11.77;;;2.10;;
52368;SDS011;38298;50.346;3.526;2023-12-20T06:54:24;12.20;;;3.17;;
52368;SDS011;38298;50.346;3.526;2023-12-20T06:56:50;7.53;;;1.88;;
52368;SDS011;38298;50.346;3.526;2023-12-20T06:59:16;18.15;;;2.03;;
52368;SDS011;38298;50.346;3.526;2023-12-20T07:01:42;14.20;;;2.28;;
52368;SDS011;38298;50.346;3.526;2023-12-20T07:04:13;17.67;;;2.35;;
52368;SDS011;38298;50.346;3.526;2023-12-20T07:06:39;17.70;;;2.50;;
52368;SDS011;38298;50.346;3.526;2023-12-20T07:09:05;16.17;;;2.10;;
52368;SDS011;38298;50.346;3.526;2023-12-20T07:11:31;7.63;;;1.48;;
52368;SDS011;38298;50.346;3.526;2023-12-20T07:13:57;24.38;;;2.55;;
52368;SDS011;38298;50.346;3.526;2023-12-20T07:16:23;14.48;;;2.42;;
52368;SDS011;38298;50.346;3.526;2023-12-20T07:18:49;8.88;;;1.92;;
52368;SDS011;38298;50.346;3.526;2023-12-20T07:21:17;11.38;;;1.63;;
52368;SDS011;38298;50.346;3.526;2023-12-20T07:23:43;14.07;;;2.28;;
52368;SDS011;38298;50.346;3.526;2023-12-20T07:26:09;9.60;;;2.13;;
52368;SDS011;38298;50.346;3.526;2023-12-20T07:28:36;12.63;;;1.85;;
52368;SDS011;38298;50.346;3.526;2023-12-20T07:31:02;14.98;;;2.00;;
52368;SDS011;38298;50.346;3.526;2023-12-20T07:33:28;8.75;;;1.65;;
52368;SDS011;38298;50.346;3.526;2023-12-20T07:35:55;18.15;;;2.42;;
52368;SDS011;38298;50.346;3.526;2023-12-20T07:38:20;12.38;;;2.85;;
52368;SDS011;38298;50.346;3.526;2023-12-20T07:40:47;15.82;;;2.60;;
52368;SDS011;38298;50.346;3.526;2023-12-20T07:43:15;17.75;;;2.28;;
52368;SDS011;38298;50.346;3.526;2023-12-20T07:45:41;14.38;;;2.70;;
52368;SDS011;38298;50.346;3.526;2023-12-20T07:48:07;13.88;;;2.42;;
52368;SDS011;38298;50.346;3.526;2023-12-20T07:50:33;11.93;;;2.17;;
52368;SDS011;38298;50.346;3.526;2023-12-20T07:52:59;12.90;;;2.30;;
52368;SDS011;38298;50.346;3.526;2023-12-20T07:55:26;9.32;;;2.42;;
52368;SDS011;38298;50.346;3.526;2023-12-20T07:57:52;8.57;;;2.08;;
52368;SDS011;38298;50.346;3.526;2023-12-20T08:00:18;21.77;;;2.53;;
52368;SDS011;38298;50.346;3.526;2023-12-20T08:02:44;14.43;;;2.38;;
52368;SDS011;38298;50.346;3.526;2023-12-20T08:05:11;16.60;;;3.45;;
52368;SDS011;38298;50.346;3.526;2023-12-20T08:07:37;12.70;;;2.60;;
52368;SDS011;38298;50.346;3.526;2023-12-20T08:10:03;9.52;;;1.88;;
52368;SDS011;38298;50.346;3.526;2023-12-20T08:12:29;14.60;;;2.08;;
52368;SDS011;38298;50.346;3.526;2023-12-20T08:14:55;13.95;;;1.67;;
52368;SDS011;38298;50.346;3.526;2023-12-20T08:17:22;12.63;;;2.08;;
52368;SDS011;38298;50.346;3.526;2023-12-20T08:19:48;16.30;;;2.30;;
52368;SDS011;38298;50.346;3.526;2023-12-20T08:22:14;12.93;;;1.98;;
52368;SDS011;38298;50.346;3.526;2023-12-20T08:24:40;11.90;;;2.05;;
52368;SDS011;38298;50.346;3.526;2023-12-20T08:27:06;18.75;;;2.08;;
52368;SDS011;38298;50.346;3.526;2023-12-20T08:29:32;15.65;;;1.70;;
52368;SDS011;38298;50.346;3.526;2023-12-20T08:31:59;13.10;;;1.83;;
52368;SDS011;38298;50.346;3.526;2023-12-20T08:34:25;20.67;;;2.22;;
52368;SDS011;38298;50.346;3.526;2023-12-20T08:36:51;11.30;;;2.08;;
52368;SDS011;38298;50.346;3.526;2023-12-20T08:39:17;14.13;;;2.28;;
52368;SDS011;38298;50.346;3.526;2023-12-20T08:41:43;10.00;;;1.75;;
52368;SDS011;38298;50.346;3.526;2023-12-20T08:44:09;11.60;;;2.10;;
52368;SDS011;38298;50.346;3.526;2023-12-20T08:46:35;11.55;;;2.22;;
52368;SDS011;38298;50.346;3.526;2023-12-20T08:49:02;13.50;;;1.95;;
52368;SDS011;38298;50.346;3.526;2023-12-20T08:51:28;14.70;;;2.15;;
52368;SDS011;38298;50.346;3.526;2023-12-20T08:53:54;6.65;;;1.90;;
52368;SDS011;38298;50.346;3.526;2023-12-20T08:56:20;10.48;;;2.53;;
52368;SDS011;38298;50.346;3.526;2023-12-20T08:58:46;18.40;;;2.20;;
52368;SDS011;38298;50.346;3.526;2023-12-20T09:01:12;17.75;;;1.90;;
52368;SDS011;38298;50.346;3.526;2023-12-20T09:03:39;13.15;;;1.90;;
52368;SDS011;38298;50.346;3.526;2023-12-20T09:06:05;18.38;;;2.35;;
52368;SDS011;38298;50.346;3.526;2023-12-20T09:08:31;12.98;;;1.67;;
52368;SDS011;38298;50.346;3.526;2023-12-20T09:10:57;11.35;;;2.33;;
52368;SDS011;38298;50.346;3.526;2023-12-20T09:13:23;11.35;;;1.60;;
52368;SDS011;38298;50.346;3.526;2023-12-20T09:15:56;19.52;;;2.20;;
52368;SDS011;38298;50.346;3.526;2023-12-20T09:18:22;13.48;;;2.53;;
52368;SDS011;38298;50.346;3.526;2023-12-20T09:20:48;9.25;;;1.33;;
52368;SDS011;38298;50.346;3.526;2023-12-20T09:23:14;12.57;;;1.50;;
52368;SDS011;38298;50.346;3.526;2023-12-20T09:25:40;12.02;;;1.42;;
52368;SDS011;38298;50.346;3.526;2023-12-20T09:28:06;15.00;;;1.70;;
52368;SDS011;38298;50.346;3.526;2023-12-20T09:30:32;13.50;;;2.00;;
52368;SDS011;38298;50.346;3.526;2023-12-20T09:33:00;18.48;;;1.95;;
52368;SDS011;38298;50.346;3.526;2023-12-20T09:35:26;21.23;;;2.28;;
52368;SDS011;38298;50.346;3.526;2023-12-20T09:37:52;13.07;;;1.83;;
52368;SDS011;38298;50.346;3.526;2023-12-20T09:40:19;17.38;;;2.22;;
52368;SDS011;38298;50.346;3.526;2023-12-20T09:42:56;16.02;;;2.10;;
52368;SDS011;38298;50.346;3.526;2023-12-20T09:45:23;16.95;;;1.67;;
52368;SDS011;38298;50.346;3.526;2023-12-20T09:47:52;12.75;;;1.80;;
52368;SDS011;38298;50.346;3.526;2023-12-20T09:50:20;12.13;;;1.83;;
52368;SDS011;38298;50.346;3.526;2023-12-20T09:52:49;13.57;;;1.95;;
52368;SDS011;38298;50.346;3.526;2023-12-20T09:55:20;20.25;;;2.40;;
52368;SDS011;38298;50.346;3.526;2023-12-20T09:57:46;9.88;;;2.00;;
52368;SDS011;38298;50.346;3.526;2023-12-20T10:00:15;11.35;;;1.80;;
52368;SDS011;38298;50.346;3.526;2023-12-20T10:02:45;9.93;;;1.90;;
52368;SDS011;38298;50.346;3.526;2023-12-20T10:05:15;17.67;;;2.33;;
52368;SDS011;38298;50.346;3.526;2023-12-20T10:07:41;13.60;;;2.33;;
52368;SDS011;38298;50.346;3.526;2023-12-20T10:10:07;14.55;;;2.60;;
52368;SDS011;38298;50.346;3.526;2023-12-20T10:12:33;13.30;;;2.05;;
52368;SDS011;38298;50.346;3.526;2023-12-20T10:15:00;18.17;;;2.58;;
52368;SDS011;38298;50.346;3.526;2023-12-20T10:17:26;20.80;;;2.88;;
52368;SDS011;38298;50.346;3.526;2023-12-20T10:19:54;15.27;;;2.00;;
52368;SDS011;38298;50.346;3.526;2023-12-20T10:22:21;18.67;;;2.15;;
52368;SDS011;38298;50.346;3.526;2023-12-20T10:24:50;12.70;;;2.67;;
52368;SDS011;38298;50.346;3.526;2023-12-20T10:27:16;14.18;;;2.20;;
52368;SDS011;38298;50.346;3.526;2023-12-20T10:32:25;16.55;;;2.97;;
52368;SDS011;38298;50.346;3.526;2023-12-20T10:34:52;13.77;;;2.15;;
52368;SDS011;38298;50.346;3.526;2023-12-20T10:37:19;18.10;;;2.60;;
52368;SDS011;38298;50.346;3.526;2023-12-20T10:39:52;20.42;;;2.58;;
52368;SDS011;38298;50.346;3.526;2023-12-20T10:42:30;17.58;;;2.40;;
52368;SDS011;38298;50.346;3.526;2023-12-20T10:44:56;17.15;;;2.45;;
52368;SDS011;38298;50.346;3.526;2023-12-20T10:47:22;14.45;;;2.10;;
52368;SDS011;38298;50.346;3.526;2023-12-20T10:49:48;16.50;;;2.90;;
52368;SDS011;38298;50.346;3.526;2023-12-20T10:52:15;14.20;;;2.78;;
52368;SDS011;38298;50.346;3.526;2023-12-20T10:54:42;16.90;;;3.03;;
52368;SDS011;38298;50.346;3.526;2023-12-20T10:57:08;22.52;;;2.85;;
52368;SDS011;38298;50.346;3.526;2023-12-20T10:59:36;14.48;;;2.50;;
52368;SDS011;38298;50.346;3.526;2023-12-20T11:02:04;8.48;;;1.73;;
52368;SDS011;38298;50.346;3.526;2023-12-20T11:04:53;19.65;;;1.95;;
52368;SDS011;38298;50.346;3.526;2023-12-20T11:07:22;12.52;;;1.92;;
52368;SDS011;38298;50.346;3.526;2023-12-20T11:09:56;14.02;;;2.47;;
52368;SDS011;38298;50.346;3.526;2023-12-20T11:15:10;15.27;;;2.17;;
52368;SDS011;38298;50.346;3.526;2023-12-20T11:17:38;17.98;;;2.38;;
52368;SDS011;38298;50.346;3.526;2023-12-20T11:20:05;10.77;;;1.55;;
52368;SDS011;38298;50.346;3.526;2023-12-20T11:22:31;17.08;;;1.83;;
52368;SDS011;38298;50.346;3.526;2023-12-20T11:24:58;10.15;;;1.65;;
52368;SDS011;38298;50.346;3.526;2023-12-20T11:27:24;12.60;;;2.13;;
52368;SDS011;38298;50.346;3.526;2023-12-20T11:29:51;13.32;;;1.77;;
52368;SDS011;38298;50.346;3.526;2023-12-20T11:35:00;18.65;;;2.40;;
52368;SDS011;38298;50.346;3.526;2023-12-20T11:37:34;18.75;;;2.50;;
52368;SDS011;38298;50.346;3.526;2023-12-20T11:40:02;12.65;;;1.90;;
52368;SDS011;38298;50.346;3.526;2023-12-20T11:42:32;14.73;;;2.53;;
52368;SDS011;38298;50.346;3.526;2023-12-20T11:44:59;17.70;;;2.30;;
52368;SDS011;38298;50.346;3.526;2023-12-20T11:47:25;17.13;;;1.98;;
52368;SDS011;38298;50.346;3.526;2023-12-20T11:49:51;24.02;;;2.65;;
52368;SDS011;38298;50.346;3.526;2023-12-20T11:52:17;16.95;;;2.95;;
52368;SDS011;38298;50.346;3.526;2023-12-20T11:54:43;13.25;;;2.22;;
52368;SDS011;38298;50.346;3.526;2023-12-20T11:57:09;19.27;;;2.50;;
52368;SDS011;38298;50.346;3.526;2023-12-20T11:59:36;12.85;;;1.88;;
52368;SDS011;38298;50.346;3.526;2023-12-20T12:02:02;13.88;;;2.22;;
52368;SDS011;38298;50.346;3.526;2023-12-20T12:04:28;21.80;;;2.78;;
52368;SDS011;38298;50.346;3.526;2023-12-20T12:06:54;23.25;;;2.47;;
52368;SDS011;38298;50.346;3.526;2023-12-20T12:09:20;17.95;;;1.98;;
52368;SDS011;38298;50.346;3.526;2023-12-20T12:11:46;18.77;;;2.67;;
52368;SDS011;38298;50.346;3.526;2023-12-20T12:14:12;12.82;;;2.30;;
52368;SDS011;38298;50.346;3.526;2023-12-20T12:16:38;18.38;;;2.70;;
52368;SDS011;38298;50.346;3.526;2023-12-20T12:19:04;15.65;;;2.10;;
52368;SDS011;38298;50.346;3.526;2023-12-20T12:21:30;27.65;;;3.22;;
52368;SDS011;38298;50.346;3.526;2023-12-20T12:24:06;18.50;;;2.17;;
52368;SDS011;38298;50.346;3.526;2023-12-20T12:26:32;20.38;;;2.17;;
52368;SDS011;38298;50.346;3.526;2023-12-20T12:28:58;21.35;;;2.50;;
52368;SDS011;38298;50.346;3.526;2023-12-20T12:31:24;17.70;;;2.17;;
52368;SDS011;38298;50.346;3.526;2023-12-20T12:33:51;11.88;;;2.92;;
52368;SDS011;38298;50.346;3.526;2023-12-20T12:36:17;22.52;;;2.53;;
52368;SDS011;38298;50.346;3.526;2023-12-20T12:38:43;13.98;;;2.08;;
52368;SDS011;38298;50.346;3.526;2023-12-20T12:41:12;16.63;;;1.77;;
52368;SDS011;38298;50.346;3.526;2023-12-20T12:43:38;22.67;;;2.35;;
52368;SDS011;38298;50.346;3.526;2023-12-20T12:46:04;22.50;;;3.55;;
52368;SDS011;38298;50.346;3.526;2023-12-20T12:48:30;11.32;;;1.98;;
52368;SDS011;38298;50.346;3.526;2023-12-20T12:50:56;21.10;;;1.83;;
52368;SDS011;38298;50.346;3.526;2023-12-20T12:53:24;23.25;;;2.20;;
52368;SDS011;38298;50.346;3.526;2023-12-20T12:55:51;10.57;;;2.38;;
52368;SDS011;38298;50.346;3.526;2023-12-20T12:58:26;13.77;;;2.25;;
52368;SDS011;38298;50.346;3.526;2023-12-20T13:00:52;20.55;;;2.20;;
52368;SDS011;38298;50.346;3.526;2023-12-20T13:03:18;10.88;;;2.00;;
52368;SDS011;38298;50.346;3.526;2023-12-20T13:05:44;17.88;;;2.25;;
52368;SDS011;38298;50.346;3.526;2023-12-20T13:08:12;16.95;;;2.55;;
52368;SDS011;38298;50.346;3.526;2023-12-20T13:10:38;19.10;;;2.28;;
52368;SDS011;38298;50.346;3.526;2023-12-20T13:13:04;17.02;;;2.53;;
52368;SDS011;38298;50.346;3.526;2023-12-20T13:15:30;10.45;;;1.80;;
52368;SDS011;38298;50.346;3.526;2023-12-20T13:17:56;18.45;;;2.45;;
52368;SDS011;38298;50.346;3.526;2023-12-20T13:20:22;14.90;;;2.45;;
52368;SDS011;38298;50.346;3.526;2023-12-20T13:22:48;16.05;;;3.25;;
52368;SDS011;38298;50.346;3.526;2023-12-20T13:25:14;16.38;;;2.17;;
52368;SDS011;38298;50.346;3.526;2023-12-20T13:27:41;10.45;;;1.63;;
52368;SDS011;38298;50.346;3.526;2023-12-20T13:30:07;10.65;;;2.05;;
52368;SDS011;38298;50.346;3.526;2023-12-20T13:32:33;16.83;;;1.88;;
52368;SDS011;38298;50.346;3.526;2023-12-20T13:34:59;12.32;;;1.40;;
52368;SDS011;38298;50.346;3.526;2023-12-20T13:37:25;8.30;;;1.65;;
52368;SDS011;38298;50.346;3.526;2023-12-20T13:39:51;10.10;;;1.67;;
52368;SDS011;38298;50.346;3.526;2023-12-20T13:42:17;14.07;;;1.85;;
52368;SDS011;38298;50.346;3.526;2023-12-20T13:44:45;17.15;;;1.95;;
52368;SDS011;38298;50.346;3.526;2023-12-20T13:47:12;16.98;;;1.90;;
52368;SDS011;38298;50.346;3.526;2023-12-20T13:49:38;9.38;;;1.85;;
52368;SDS011;38298;50.346;3.526;2023-12-20T13:52:04;15.77;;;2.25;;
52368;SDS011;38298;50.346;3.526;2023-12-20T13:54:30;15.23;;;2.20;;
52368;SDS011;38298;50.346;3.526;2023-12-20T13:56:56;17.88;;;1.95;;
52368;SDS011;38298;50.346;3.526;2023-12-20T13:59:22;19.33;;;2.15;;
52368;SDS011;38298;50.346;3.526;2023-12-20T14:01:52;9.18;;;2.00;;
52368;SDS011;38298;50.346;3.526;2023-12-20T14:04:18;18.58;;;2.60;;
52368;SDS011;38298;50.346;3.526;2023-12-20T14:06:44;12.75;;;2.17;;
52368;SDS011;38298;50.346;3.526;2023-12-20T14:09:10;13.68;;;2.58;;
52368;SDS011;38298;50.346;3.526;2023-12-20T14:11:37;11.32;;;2.60;;
52368;SDS011;38298;50.346;3.526;2023-12-20T14:14:06;15.90;;;1.90;;
52368;SDS011;38298;50.346;3.526;2023-12-20T14:16:32;17.40;;;2.40;;
52368;SDS011;38298;50.346;3.526;2023-12-20T14:18:58;11.93;;;2.35;;
52368;SDS011;38298;50.346;3.526;2023-12-20T14:21:24;18.08;;;2.30;;
52368;SDS011;38298;50.346;3.526;2023-12-20T14:23:50;13.50;;;1.95;;
52368;SDS011;38298;50.346;3.526;2023-12-20T14:26:17;17.73;;;2.55;;
52368;SDS011;38298;50.346;3.526;2023-12-20T14:28:43;18.17;;;2.15;;
52368;SDS011;38298;50.346;3.526;2023-12-20T14:31:09;17.50;;;2.70;;
52368;SDS011;38298;50.346;3.526;2023-12-20T14:33:35;13.13;;;2.05;;
52368;SDS011;38298;50.346;3.526;2023-12-20T14:36:06;8.05;;;1.83;;
52368;SDS011;38298;50.346;3.526;2023-12-20T14:38:32;13.68;;;1.92;;
52368;SDS011;38298;50.346;3.526;2023-12-20T14:40:58;13.27;;;1.80;;